createdAt,value
2018-11-29T00:01:08.491Z,60.43
2018-11-29T00:03:37.785Z,56.50
2018-11-29T00:06:25.958Z,61.40
2018-11-29T00:08:55.491Z,60.87
2018-11-29T00:11:25.015Z,59.17
2018-11-29T00:13:54.599Z,59.00
2018-11-29T00:16:24.170Z,56.73
2018-11-29T00:18:53.711Z,71.87
2018-11-29T00:21:23.327Z,60.40
2018-11-29T00:23:52.891Z,52.57
2018-11-29T00:26:22.463Z,72.03
2018-11-29T00:28:52.008Z,57.83
2018-11-29T00:31:21.570Z,60.67
2018-11-29T00:33:51.122Z,64.43
2018-11-29T00:36:20.671Z,63.50
2018-11-29T00:38:50.258Z,60.50
2018-11-29T00:41:19.795Z,58.13
2018-11-29T00:43:49.694Z,57.57
2018-11-29T00:46:19.624Z,56.63
2018-11-29T00:48:49.191Z,67.27
2018-11-29T00:51:20.031Z,61.23
2018-11-29T00:53:49.299Z,56.50
2018-11-29T00:56:18.883Z,56.90
2018-11-29T00:58:48.566Z,59.43
2018-11-29T01:01:18.134Z,60.70
2018-11-29T01:03:47.694Z,57.27
2018-11-29T01:06:16.926Z,59.13
2018-11-29T01:08:46.391Z,66.27
2018-11-29T01:11:15.625Z,60.43
2018-11-29T01:13:44.712Z,73.53
2018-11-29T01:16:14.203Z,62.60
2018-11-29T01:18:43.414Z,52.23
2018-11-29T01:21:12.554Z,56.47
2018-11-29T01:23:41.650Z,61.07
2018-11-29T01:26:11.147Z,60.57
2018-11-29T01:28:40.355Z,53.10
2018-11-29T01:31:09.451Z,51.13
2018-11-29T01:33:38.539Z,57.43
2018-11-29T01:36:08.047Z,58.07
2018-11-29T01:38:37.218Z,55.93
2018-11-29T01:41:06.713Z,56.97
2018-11-29T01:43:35.927Z,52.30
2018-11-29T01:46:05.403Z,55.07
2018-11-29T01:48:34.991Z,61.23
2018-11-29T01:51:04.967Z,58.63
2018-11-29T01:53:34.155Z,62.23
2018-11-29T01:56:03.639Z,46.80
2018-11-29T01:58:33.235Z,51.70
2018-11-29T02:01:02.799Z,56.20
2018-11-29T02:03:31.974Z,51.70
2018-11-29T02:06:01.106Z,48.03
2018-11-29T02:08:30.198Z,44.83
2018-11-29T02:10:59.358Z,51.37
2018-11-29T02:13:28.887Z,52.20
2018-11-29T02:15:58.471Z,54.83
2018-11-29T02:18:28.039Z,50.23
2018-11-29T02:20:57.828Z,45.23
2018-11-29T02:23:27.391Z,47.57
2018-11-29T02:25:56.966Z,53.10
2018-11-29T02:28:26.177Z,41.20
2018-11-29T02:30:55.664Z,47.67
2018-11-29T02:33:25.220Z,50.00
2018-11-29T02:35:54.842Z,48.57
2018-11-29T02:38:24.035Z,43.40
2018-11-29T02:40:53.218Z,45.83
2018-11-29T02:43:22.735Z,50.13
2018-11-29T02:45:52.316Z,47.43
2018-11-29T02:48:21.857Z,51.83
2018-11-29T02:50:51.460Z,48.40
2018-11-29T02:53:21.015Z,43.07
2018-11-29T02:55:50.193Z,45.23
2018-11-29T02:58:19.700Z,44.37
2018-11-29T03:00:49.323Z,46.50
2018-11-29T03:03:18.877Z,44.13
2018-11-29T03:05:48.496Z,47.47
2018-11-29T03:08:17.691Z,51.37
2018-11-29T03:10:47.163Z,49.23
2018-11-29T03:13:16.896Z,51.10
2018-11-29T03:15:46.467Z,45.00
2018-11-29T03:18:16.244Z,47.33
2018-11-29T03:20:45.987Z,49.17
2018-11-29T03:23:15.158Z,53.10
2018-11-29T03:25:44.296Z,49.97
2018-11-29T03:28:13.797Z,52.60
2018-11-29T03:30:43.356Z,51.60
2018-11-29T03:33:12.967Z,42.57
2018-11-29T03:35:44.632Z,52.13
2018-11-29T03:38:12.103Z,47.60
2018-11-29T03:40:41.754Z,45.93
2018-11-29T03:43:11.323Z,52.90
2018-11-29T03:45:40.896Z,50.20
2018-11-29T03:48:10.499Z,51.80
2018-11-29T03:50:39.666Z,45.63
2018-11-29T03:53:08.807Z,50.00
2018-11-29T03:55:38.325Z,50.57
2018-11-29T03:58:07.901Z,51.47
2018-11-29T04:00:37.090Z,51.73
2018-11-29T04:03:07.587Z,49.40
2018-11-29T04:05:36.771Z,41.70
2018-11-29T04:08:06.747Z,46.20
2018-11-29T04:10:35.922Z,47.43
2018-11-29T04:13:05.291Z,46.90
2018-11-29T04:15:34.403Z,52.20
2018-11-29T04:18:03.514Z,47.53
2018-11-29T04:20:32.685Z,41.90
2018-11-29T04:23:02.388Z,46.27
2018-11-29T04:25:31.971Z,45.23
2018-11-29T04:28:01.524Z,44.83
2018-11-29T04:30:31.151Z,45.80
2018-11-29T04:33:00.785Z,43.40
2018-11-29T04:35:30.336Z,45.90
2018-11-29T04:37:59.560Z,38.97
2018-11-29T04:40:29.055Z,48.50
2018-11-29T04:42:58.658Z,40.07
2018-11-29T04:46:34.975Z,43.60
2018-11-29T04:49:04.466Z,39.33
2018-11-29T04:51:34.023Z,36.37
2018-11-29T04:54:03.645Z,36.20
2018-11-29T04:56:32.814Z,41.37
2018-11-29T04:59:01.923Z,37.33
2018-11-29T05:01:31.079Z,38.53
2018-11-29T05:04:00.551Z,37.73
2018-11-29T05:06:30.160Z,35.13
2018-11-29T05:08:59.774Z,39.23
2018-11-29T05:11:29.338Z,36.23
2018-11-29T05:13:58.570Z,36.97
2018-11-29T05:16:27.715Z,37.10
2018-11-29T05:18:56.803Z,40.80
2018-11-29T05:21:26.372Z,39.73
2018-11-29T05:23:55.588Z,42.93
2018-11-29T05:26:25.074Z,35.30
2018-11-29T05:28:54.238Z,35.60
2018-11-29T05:31:23.750Z,39.70
2018-11-29T05:33:53.327Z,38.37
2018-11-29T05:36:22.891Z,30.40
2018-11-29T05:38:52.114Z,35.97
2018-11-29T05:41:21.635Z,33.57
2018-11-29T05:43:51.203Z,34.33
2018-11-29T05:46:20.434Z,30.63
2018-11-29T05:48:49.897Z,36.67
2018-11-29T05:51:19.150Z,34.63
2018-11-29T05:53:48.635Z,40.10
2018-11-29T05:56:18.190Z,37.13
2018-11-29T05:58:47.791Z,33.57
2018-11-29T06:01:25.663Z,39.23
2018-11-29T06:03:55.139Z,37.10
2018-11-29T06:06:24.705Z,32.90
2018-11-29T06:08:54.396Z,41.00
2018-11-29T06:11:23.694Z,37.80
2018-11-29T06:13:52.854Z,33.33
2018-11-29T06:16:22.315Z,48.27
2018-11-29T06:18:51.919Z,43.77
2018-11-29T06:21:21.156Z,33.53
2018-11-29T06:23:51.056Z,36.00
2018-11-29T06:26:20.767Z,27.93
2018-11-29T06:28:50.930Z,36.43
2018-11-29T06:31:20.500Z,33.50
2018-11-29T06:33:49.766Z,43.47
2018-11-29T06:36:19.283Z,27.40
2018-11-29T06:38:48.867Z,27.13
2018-11-29T06:41:18.099Z,30.10
2018-11-29T06:43:47.235Z,30.63
2018-11-29T06:46:16.744Z,29.67
2018-11-29T06:48:45.933Z,24.83
2018-11-29T06:51:15.424Z,29.47
2018-11-29T06:53:49.951Z,35.30
2018-11-29T06:56:19.451Z,30.67
2018-11-29T06:58:48.988Z,30.93
2018-11-29T07:01:18.209Z,26.83
2018-11-29T07:03:47.705Z,25.70
2018-11-29T07:06:16.888Z,28.20
2018-11-29T07:08:46.395Z,25.27
2018-11-29T07:11:16.012Z,28.87
2018-11-29T07:13:45.578Z,27.43
2018-11-29T07:16:15.164Z,27.13
2018-11-29T07:18:44.797Z,26.23
2018-11-29T07:21:25.663Z,28.57
2018-11-29T07:23:54.844Z,30.00
2018-11-29T07:26:23.943Z,25.90
2018-11-29T07:28:53.471Z,28.33
2018-11-29T07:31:23.051Z,30.23
2018-11-29T07:33:52.247Z,29.23
2018-11-29T07:36:21.767Z,25.53
2018-11-29T07:38:51.326Z,28.87
2018-11-29T07:41:20.887Z,24.23
2018-11-29T07:43:50.444Z,24.40
2018-11-29T07:46:19.707Z,27.57
2018-11-29T07:48:48.803Z,26.47
2018-11-29T07:51:18.316Z,27.40
2018-11-29T07:53:47.502Z,26.00
2018-11-29T07:56:17.407Z,28.07
2018-11-29T07:58:51.472Z,23.50
2018-11-29T08:01:16.644Z,30.60
2018-11-29T08:03:46.240Z,24.33
2018-11-29T08:06:15.815Z,21.53
2018-11-29T08:08:45.391Z,23.50
2018-11-29T08:11:14.584Z,33.53
2018-11-29T08:13:44.060Z,26.50
2018-11-29T08:16:13.631Z,31.80
2018-11-29T08:18:43.563Z,29.13
2018-11-29T08:21:12.730Z,26.27
2018-11-29T08:23:41.810Z,40.80
2018-11-29T08:26:11.309Z,27.07
2018-11-29T08:28:40.879Z,28.80
2018-11-29T08:31:10.095Z,22.47
2018-11-29T08:33:39.215Z,24.30
2018-11-29T08:36:08.722Z,25.77
2018-11-29T08:38:37.953Z,27.73
2018-11-29T08:41:07.044Z,23.83
2018-11-29T08:43:36.147Z,22.40
2018-11-29T08:46:06.049Z,24.20
2018-11-29T08:48:35.623Z,24.10
2018-11-29T08:51:05.448Z,23.73
2018-11-29T08:53:34.639Z,27.33
2018-11-29T08:56:04.082Z,17.67
2018-11-29T08:58:33.199Z,21.47
2018-11-29T09:01:02.311Z,23.00
2018-11-29T09:03:31.583Z,24.70
2018-11-29T09:06:01.183Z,25.50
2018-11-29T09:08:30.771Z,22.03
2018-11-29T09:11:00.384Z,24.43
2018-11-29T09:13:29.943Z,25.03
2018-11-29T09:15:59.152Z,23.77
2018-11-29T09:18:28.623Z,21.43
2018-11-29T09:20:57.799Z,27.07
2018-11-29T09:23:26.875Z,22.83
2018-11-29T09:25:56.355Z,28.00
2018-11-29T09:28:25.924Z,26.90
2018-11-29T09:30:55.134Z,27.93
2018-11-29T09:33:24.603Z,21.00
2018-11-29T09:35:54.179Z,26.00
2018-11-29T09:38:23.728Z,34.13
2018-11-29T09:40:52.979Z,23.47
2018-11-29T09:43:22.438Z,23.07
2018-11-29T09:45:51.928Z,22.93
2018-11-29T09:48:21.507Z,26.93
2018-11-29T09:50:51.064Z,22.00
2018-11-29T09:53:20.292Z,23.20
2018-11-29T09:55:49.756Z,27.97
2018-11-29T09:58:19.735Z,26.10
2018-11-29T10:00:49.307Z,26.00
2018-11-29T10:03:18.495Z,20.20
2018-11-29T10:05:47.627Z,21.40
2018-11-29T10:08:17.291Z,28.60
2018-11-29T10:10:46.797Z,34.97
2018-11-29T10:13:16.341Z,23.53
2018-11-29T10:15:45.933Z,26.63
2018-11-29T10:18:15.535Z,28.30
2018-11-29T10:20:44.502Z,37.63
2018-11-29T10:23:13.601Z,37.60
2018-11-29T10:25:43.447Z,48.13
2018-11-29T10:28:14.136Z,32.90
2018-11-29T10:30:51.909Z,38.43
2018-11-29T10:33:20.886Z,44.40
2018-11-29T10:35:50.339Z,47.23
2018-11-29T10:38:19.458Z,24.50
2018-11-29T10:40:48.582Z,46.87
2018-11-29T10:43:17.706Z,55.90
2018-11-29T10:45:47.208Z,26.17
2018-11-29T10:48:18.539Z,38.60
2018-11-29T10:50:48.192Z,37.63
2018-11-29T10:53:17.370Z,25.33
2018-11-29T10:55:46.853Z,23.73
2018-11-29T10:58:16.420Z,32.03
2018-11-29T11:00:50.895Z,36.43
2018-11-29T11:03:21.039Z,21.00
2018-11-29T11:05:50.564Z,36.73
2018-11-29T11:08:20.613Z,23.23
2018-11-29T11:10:50.397Z,24.73
2018-11-29T11:13:20.028Z,20.73
2018-11-29T11:15:49.581Z,22.40
2018-11-29T11:18:19.276Z,36.40
2018-11-29T11:20:48.855Z,19.83
2018-11-29T11:23:18.464Z,24.10
2018-11-29T11:25:47.452Z,25.90
2018-11-29T11:28:16.911Z,20.10
2018-11-29T11:30:46.083Z,31.80
2018-11-29T11:33:15.203Z,33.90
2018-11-29T11:35:44.725Z,29.80
2018-11-29T11:38:14.311Z,19.93
2018-11-29T11:40:43.906Z,34.60
2018-11-29T11:43:15.325Z,29.23
2018-11-29T11:45:44.564Z,35.77
2018-11-29T11:48:14.025Z,22.90
2018-11-29T11:50:43.255Z,28.90
2018-11-29T11:53:12.409Z,23.80
2018-11-29T11:55:41.515Z,43.73
2018-11-29T11:58:10.980Z,30.67
2018-11-29T12:00:40.172Z,44.67
2018-11-29T12:03:10.860Z,30.00
2018-11-29T12:05:40.395Z,53.60
2018-11-29T12:08:09.583Z,140.40
2018-11-29T12:10:40.238Z,42.20
2018-11-29T12:13:09.416Z,29.53
2018-11-29T12:15:38.523Z,31.43
2018-11-29T12:18:09.592Z,42.67
2018-11-29T12:20:38.802Z,40.13
2018-11-29T12:23:08.443Z,28.87
2018-11-29T12:25:37.641Z,47.60
2018-11-29T12:28:07.183Z,36.00
2018-11-29T12:30:46.819Z,36.37
2018-11-29T12:33:16.212Z,32.33
2018-11-29T12:35:45.787Z,27.77
2018-11-29T12:38:15.356Z,35.57
2018-11-29T12:40:44.975Z,27.50
2018-11-29T12:43:14.551Z,40.03
2018-11-29T12:45:43.718Z,41.00
2018-11-29T12:48:13.254Z,36.33
2018-11-29T12:50:42.429Z,30.50
2018-11-29T12:53:11.904Z,27.23
2018-11-29T12:55:41.838Z,28.23
2018-11-29T12:58:10.933Z,30.87
2018-11-29T13:00:40.418Z,36.40
2018-11-29T13:03:09.858Z,27.90
2018-11-29T13:05:39.323Z,30.03
2018-11-29T13:08:09.492Z,35.83
2018-11-29T13:10:39.083Z,36.47
2018-11-29T13:13:08.647Z,24.13
2018-11-29T13:15:37.839Z,35.10
2018-11-29T13:18:07.591Z,56.03
2018-11-29T13:20:37.527Z,54.43
2018-11-29T13:23:07.071Z,27.63
2018-11-29T13:25:36.235Z,24.93
2018-11-29T13:28:06.176Z,31.43
2018-11-29T13:30:36.939Z,30.60
2018-11-29T13:33:08.173Z,25.17
2018-11-29T13:35:37.941Z,35.07
2018-11-29T13:38:11.642Z,27.53
2018-11-29T13:40:45.396Z,31.57
2018-11-29T13:43:14.965Z,29.27
2018-11-29T13:45:44.532Z,29.17
2018-11-29T13:48:13.811Z,31.13
2018-11-29T13:50:43.288Z,29.97
2018-11-29T13:53:12.479Z,45.80
2018-11-29T13:55:41.687Z,27.00
2018-11-29T13:58:10.695Z,26.90
2018-11-29T14:00:40.099Z,24.40
2018-11-29T14:03:10.967Z,39.70
2018-11-29T14:05:40.435Z,23.97
2018-11-29T14:08:10.535Z,28.47
2018-11-29T14:10:41.331Z,27.23
2018-11-29T14:13:10.767Z,41.43
2018-11-29T14:15:39.955Z,40.73
2018-11-29T14:18:09.434Z,29.07
2018-11-29T14:20:38.634Z,32.50
2018-11-29T14:23:08.686Z,29.83
2018-11-29T14:25:38.019Z,37.67
2018-11-29T14:28:08.055Z,31.60
2018-11-29T14:30:37.250Z,37.60
2018-11-29T14:33:07.343Z,38.93
2018-11-29T14:35:36.924Z,54.57
2018-11-29T14:38:06.555Z,58.40
2018-11-29T14:40:36.157Z,54.07
2018-11-29T14:43:05.610Z,66.67
2018-11-29T14:45:35.114Z,62.17
2018-11-29T14:48:05.151Z,56.53
2018-11-29T14:50:40.174Z,61.80
2018-11-29T14:53:10.757Z,91.93
2018-11-29T14:55:40.791Z,51.97
2018-11-29T14:58:11.776Z,67.80
2018-11-29T15:00:40.979Z,50.80
2018-11-29T15:03:10.911Z,32.27
2018-11-29T15:05:40.413Z,49.40
2018-11-29T15:08:10.861Z,50.97
2018-11-29T15:10:40.452Z,39.80
2018-11-29T15:13:11.120Z,30.83
2018-11-29T15:15:41.697Z,34.60
2018-11-29T15:18:11.139Z,31.40
2018-11-29T15:20:43.883Z,55.17
2018-11-29T15:23:13.307Z,26.63
2018-11-29T15:25:42.788Z,32.97
2018-11-29T15:28:12.416Z,36.33
2018-11-29T15:30:41.590Z,31.23
2018-11-29T15:33:11.116Z,32.83
2018-11-29T15:35:40.679Z,48.27
2018-11-29T15:38:09.599Z,57.03
2018-11-29T15:40:39.091Z,60.20
2018-11-29T15:43:08.663Z,52.80
2018-11-29T15:45:38.268Z,50.10
2018-11-29T15:48:07.841Z,60.33
2018-11-29T15:50:37.395Z,51.70
2018-11-29T15:53:07.111Z,47.03
2018-11-29T15:55:39.137Z,45.97
2018-11-29T15:58:09.855Z,38.10
2018-11-29T16:00:39.723Z,34.50
2018-11-29T16:03:09.203Z,39.50
2018-11-29T16:05:41.135Z,30.23
2018-11-29T16:08:07.812Z,33.60
2018-11-29T16:10:36.991Z,40.77
2018-11-29T16:13:06.546Z,29.70
2018-11-29T16:15:35.927Z,29.40
2018-11-29T16:18:05.777Z,32.93
2018-11-29T16:20:35.919Z,41.60
2018-11-29T16:23:05.375Z,36.90
2018-11-29T16:25:34.482Z,35.23
2018-11-29T16:28:05.208Z,32.67
2018-11-29T16:30:34.862Z,36.40
2018-11-29T16:33:05.267Z,38.20
2018-11-29T16:35:34.395Z,39.57
2018-11-29T16:38:03.975Z,46.00
2018-11-29T16:40:33.944Z,34.13
2018-11-29T16:43:03.127Z,35.77
2018-11-29T16:45:32.684Z,34.03
2018-11-29T16:48:01.857Z,43.70
2018-11-29T16:50:30.939Z,33.73
2018-11-29T16:53:00.075Z,28.43
2018-11-29T16:55:29.331Z,43.50
2018-11-29T16:58:01.516Z,29.73
2018-11-29T17:00:30.822Z,32.10
2018-11-29T17:03:00.380Z,33.17
2018-11-29T17:05:30.010Z,31.20
2018-11-29T17:07:59.257Z,36.33
2018-11-29T17:10:28.330Z,34.03
2018-11-29T17:12:58.786Z,42.90
2018-11-29T17:15:28.154Z,72.20
2018-11-29T17:17:57.820Z,45.73
2018-11-29T17:20:27.380Z,56.30
2018-11-29T17:22:56.922Z,41.10
2018-11-29T17:25:26.290Z,27.33
2018-11-29T17:27:55.379Z,36.00
2018-11-29T17:30:25.062Z,43.80
2018-11-29T17:32:55.991Z,38.40
2018-11-29T17:35:26.412Z,46.07
2018-11-29T17:37:57.563Z,43.87
2018-11-29T17:40:26.930Z,45.30
2018-11-29T17:42:56.613Z,32.50
2018-11-29T17:45:27.457Z,47.37
2018-11-29T17:47:59.477Z,36.40
2018-11-29T17:50:31.754Z,38.03
2018-11-29T17:53:01.445Z,70.57
2018-11-29T17:55:30.708Z,41.57
2018-11-29T17:58:00.288Z,146.57
2018-11-29T18:00:31.530Z,78.33
2018-11-29T18:03:00.752Z,60.47
2018-11-29T18:05:30.350Z,40.43
2018-11-29T18:07:59.929Z,90.83
2018-11-29T18:10:31.521Z,40.10
2018-11-29T18:13:11.106Z,41.13
2018-11-29T18:15:40.819Z,65.67
2018-11-29T18:18:10.509Z,64.00
2018-11-29T18:20:40.144Z,40.70
2018-11-29T18:23:10.372Z,59.17
2018-11-29T18:25:40.050Z,51.23
2018-11-29T18:28:10.192Z,48.13
2018-11-29T18:30:39.455Z,48.40
2018-11-29T18:33:08.566Z,54.23
2018-11-29T18:35:38.472Z,47.00
2018-11-29T18:38:08.575Z,40.53
2018-11-29T18:40:37.771Z,60.17
2018-11-29T18:43:08.985Z,53.03
2018-11-29T18:45:38.344Z,52.20
2018-11-29T18:48:08.524Z,52.13
2018-11-29T18:50:37.711Z,49.93
2018-11-29T18:53:06.835Z,40.20
2018-11-29T18:55:36.384Z,63.87
2018-11-29T18:58:06.068Z,68.57
2018-11-29T19:00:35.685Z,74.97
2018-11-29T19:03:05.031Z,57.47
2018-11-29T19:05:35.511Z,58.33
2018-11-29T19:08:03.784Z,59.43
2018-11-29T19:10:33.007Z,45.47
2018-11-29T19:13:10.380Z,47.27
2018-11-29T19:15:39.671Z,39.70
2018-11-29T19:18:10.634Z,40.10
2018-11-29T19:20:39.319Z,50.23
2018-11-29T19:23:08.898Z,39.80
2018-11-29T19:25:38.098Z,44.80
2018-11-29T19:28:07.931Z,33.10
2018-11-29T19:30:38.094Z,34.90
2018-11-29T19:33:09.434Z,41.10
2018-11-29T19:35:38.557Z,37.77
2018-11-29T19:38:08.044Z,52.97
2018-11-29T19:40:37.232Z,47.83
2018-11-29T19:43:06.959Z,35.03
2018-11-29T19:45:36.063Z,40.40
2018-11-29T19:48:05.771Z,44.83
2018-11-29T19:50:36.137Z,40.40
2018-11-29T19:53:09.279Z,37.90
2018-11-29T19:55:38.799Z,42.90
2018-11-29T19:58:08.394Z,36.90
2018-11-29T20:00:37.859Z,41.57
2018-11-29T20:03:07.095Z,43.00
2018-11-29T20:05:36.611Z,47.10
2018-11-29T20:08:06.766Z,41.33
2018-11-29T20:10:36.091Z,51.87
2018-11-29T20:13:08.337Z,54.83
2018-11-29T20:15:38.383Z,37.63
2018-11-29T20:18:08.135Z,49.00
2018-11-29T20:20:37.230Z,52.57
2018-11-29T20:23:06.888Z,45.53
2018-11-29T20:25:36.001Z,56.27
2018-11-29T20:28:05.963Z,44.70
2018-11-29T20:30:36.228Z,44.70
2018-11-29T20:33:06.175Z,44.47
2018-11-29T20:35:35.791Z,44.17
2018-11-29T20:38:05.386Z,42.07
2018-11-29T20:40:36.419Z,40.73
2018-11-29T20:43:06.439Z,55.83
2018-11-29T20:45:40.567Z,46.90
2018-11-29T20:48:11.516Z,42.63
2018-11-29T20:50:41.823Z,47.07
2018-11-29T20:53:12.944Z,45.10
2018-11-29T20:55:42.131Z,46.47
2018-11-29T20:58:11.647Z,52.13
2018-11-29T21:00:41.284Z,38.83
2018-11-29T21:03:10.475Z,42.93
2018-11-29T21:05:41.007Z,39.80
2018-11-29T21:08:11.258Z,45.63
2018-11-29T21:10:40.910Z,39.73
2018-11-29T21:13:10.524Z,45.93
2018-11-29T21:15:40.394Z,42.00
2018-11-29T21:18:10.171Z,50.90
2018-11-29T21:20:39.555Z,46.37
2018-11-29T21:23:10.647Z,44.70
2018-11-29T21:25:39.835Z,46.33
2018-11-29T21:28:08.966Z,51.40
2018-11-29T21:30:38.051Z,45.93
2018-11-29T21:33:08.187Z,49.07
2018-11-29T21:35:37.484Z,46.90
2018-11-29T21:38:10.663Z,47.57
2018-11-29T21:40:40.617Z,44.03
2018-11-29T21:43:09.823Z,50.83
2018-11-29T21:45:39.350Z,43.07
2018-11-29T21:48:08.566Z,42.43
2018-11-29T21:50:37.666Z,49.73
2018-11-29T21:53:07.252Z,52.23
2018-11-29T21:55:36.875Z,40.27
2018-11-29T21:58:06.617Z,60.73
2018-11-29T22:00:36.204Z,50.63
2018-11-29T22:03:05.815Z,49.57
2018-11-29T22:05:35.439Z,46.23
2018-11-29T22:08:05.036Z,49.77
2018-11-29T22:10:34.285Z,49.53
2018-11-29T22:13:03.393Z,103.60
2018-11-29T22:15:32.487Z,96.77
2018-11-29T22:18:17.803Z,100.17
2018-11-29T22:20:48.124Z,74.60
2018-11-29T22:23:21.000Z,64.03
2018-11-29T22:25:50.390Z,48.83
2018-11-29T22:28:19.496Z,54.03
2018-11-29T22:30:49.472Z,52.87
2018-11-29T22:33:21.260Z,50.53
2018-11-29T22:36:03.476Z,56.40
2018-11-29T22:38:34.719Z,40.63
2018-11-29T22:41:09.220Z,53.80
2018-11-29T22:43:39.651Z,44.53
2018-11-29T22:46:15.217Z,46.33
2018-11-29T22:49:02.494Z,34.83
2018-11-29T22:51:32.907Z,45.17
2018-11-29T22:54:02.523Z,45.90
2018-11-29T22:56:31.446Z,46.70
2018-11-29T22:59:01.770Z,50.43
2018-11-29T23:01:31.366Z,37.97
2018-11-29T23:04:00.902Z,48.63
2018-11-29T23:06:30.444Z,57.53
2018-11-29T23:09:00.007Z,52.80
2018-11-29T23:11:29.554Z,46.57
2018-11-29T23:13:59.322Z,39.83
2018-11-29T23:16:28.939Z,39.10
2018-11-29T23:18:58.451Z,45.20
2018-11-29T23:21:27.975Z,54.17
2018-11-29T23:23:57.543Z,46.13
2018-11-29T23:26:27.319Z,48.10
2018-11-29T23:28:56.238Z,48.30
2018-11-29T23:31:25.735Z,48.60
2018-11-29T23:33:55.275Z,39.00
2018-11-29T23:36:24.815Z,46.20
2018-11-29T23:38:54.367Z,42.93
2018-11-29T23:41:23.895Z,44.27
2018-11-29T23:43:53.483Z,40.47
2018-11-29T23:46:23.016Z,41.20
2018-11-29T23:48:52.539Z,41.93
2018-11-29T23:51:26.872Z,44.47
2018-11-29T23:53:56.434Z,40.80
2018-11-29T23:56:25.602Z,41.40
2018-11-29T23:58:55.051Z,34.80
